Grou, Netherlands
Current Conditions -  °F | °C
As of 5:25 PM on Sunday 23 Nov 2014 (Local Time) from EHLW Reporting Station
Broken Clouds Broken Clouds  
Wind Chill: 54°   Ceiling: 9100
Heat Index: 54°   Visibility: 6mi
Dew Point: 50°   Wind: 8mph
Humidity: 88%   Direction: 170°S
Pressure: 29.88"   Gusts: NA
Location:  53.1°N, 5.83°E
Report Text: EHLW 231625Z AUTO 17007KT 9999 FEW036 SCT081 BKN091 12/10 Q1012 BLU
Loading
Personal Weather Stations






























Interactive Weather Map New forecast layout! Learn more

10-Day Weather Forecast

Advertisements
Track Severe Weather on mobile